sensor_id;sensor_type;location;lat;lon;timestamp;pressure;altitude;pressure_sealevel;temperature;humidity
40315;BME280;26021;45.640;11.302;2023-05-09T00:01:13;99095.72;;;15.94;100.00
40315;BME280;26021;45.640;11.302;2023-05-09T00:03:39;99087.41;;;15.89;100.00
40315;BME280;26021;45.640;11.302;2023-05-09T00:06:05;99075.47;;;15.57;100.00
40315;BME280;26021;45.640;11.302;2023-05-09T00:08:31;99079.94;;;15.91;100.00
40315;BME280;26021;45.640;11.302;2023-05-09T00:10:57;99071.84;;;15.78;100.00
40315;BME280;26021;45.640;11.302;2023-05-09T00:13:23;99087.28;;;15.56;100.00
40315;BME280;26021;45.640;11.302;2023-05-09T00:15:49;99090.06;;;15.63;100.00
40315;BME280;26021;45.640;11.302;2023-05-09T00:18:14;99093.66;;;15.42;100.00
40315;BME280;26021;45.640;11.302;2023-05-09T00:20:40;99089.31;;;15.47;100.00
40315;BME280;26021;45.640;11.302;2023-05-09T00:23:06;99040.06;;;15.12;100.00
40315;BME280;26021;45.640;11.302;2023-05-09T00:25:32;99089.72;;;15.44;100.00
40315;BME280;26021;45.640;11.302;2023-05-09T00:27:57;99040.34;;;15.31;100.00
40315;BME280;26021;45.640;11.302;2023-05-09T00:30:23;99089.88;;;15.77;100.00
40315;BME280;26021;45.640;11.302;2023-05-09T00:32:49;99086.13;;;15.72;100.00
40315;BME280;26021;45.640;11.302;2023-05-09T00:35:14;99095.91;;;15.79;100.00
40315;BME280;26021;45.640;11.302;2023-05-09T00:37:40;99088.44;;;15.75;100.00
40315;BME280;26021;45.640;11.302;2023-05-09T00:40:06;99088.81;;;15.65;100.00
40315;BME280;26021;45.640;11.302;2023-05-09T00:42:33;99089.03;;;15.64;100.00
40315;BME280;26021;45.640;11.302;2023-05-09T00:45:00;99088.41;;;15.62;100.00
40315;BME280;26021;45.640;11.302;2023-05-09T00:47:26;99080.97;;;15.77;100.00
40315;BME280;26021;45.640;11.302;2023-05-09T00:49:52;99081.16;;;15.75;100.00
40315;BME280;26021;45.640;11.302;2023-05-09T00:52:18;99093.38;;;15.65;100.00
40315;BME280;26021;45.640;11.302;2023-05-09T00:54:51;99082.63;;;15.71;100.00
40315;BME280;26021;45.640;11.302;2023-05-09T00:57:17;99076.78;;;15.68;100.00
40315;BME280;26021;45.640;11.302;2023-05-09T00:59:43;99075.34;;;15.72;100.00
40315;BME280;26021;45.640;11.302;2023-05-09T01:02:08;99064.56;;;15.72;100.00
40315;BME280;26021;45.640;11.302;2023-05-09T01:04:34;99011.78;;;15.49;100.00
40315;BME280;26021;45.640;11.302;2023-05-09T01:07:07;99012.22;;;15.53;100.00
40315;BME280;26021;45.640;11.302;2023-05-09T01:09:49;99056.91;;;15.88;100.00
40315;BME280;26021;45.640;11.302;2023-05-09T01:15:27;99062.50;;;15.74;100.00
40315;BME280;26021;45.640;11.302;2023-05-09T01:20:52;99049.81;;;15.61;100.00
40315;BME280;26021;45.640;11.302;2023-05-09T01:26:42;99062.97;;;15.36;100.00
40315;BME280;26021;45.640;11.302;2023-05-09T01:29:35;99051.16;;;15.37;100.00
40315;BME280;26021;45.640;11.302;2023-05-09T01:32:16;99021.81;;;15.08;100.00
40315;BME280;26021;45.640;11.302;2023-05-09T01:34:44;99057.25;;;15.59;100.00
40315;BME280;26021;45.640;11.302;2023-05-09T01:37:15;99059.13;;;15.58;100.00
40315;BME280;26021;45.640;11.302;2023-05-09T01:39:46;99038.25;;;15.26;100.00
40315;BME280;26021;45.640;11.302;2023-05-09T01:42:14;99022.53;;;15.30;100.00
40315;BME280;26021;45.640;11.302;2023-05-09T01:44:42;99068.28;;;15.64;100.00
40315;BME280;26021;45.640;11.302;2023-05-09T01:47:10;99066.63;;;15.70;100.00
40315;BME280;26021;45.640;11.302;2023-05-09T01:49:37;99058.97;;;15.67;100.00
40315;BME280;26021;45.640;11.302;2023-05-09T01:52:10;98995.34;;;15.18;100.00
40315;BME280;26021;45.640;11.302;2023-05-09T01:54:38;99064.88;;;15.49;100.00
40315;BME280;26021;45.640;11.302;2023-05-09T01:57:06;99061.53;;;15.47;100.00
40315;BME280;26021;45.640;11.302;2023-05-09T01:59:32;99034.50;;;15.20;100.00
40315;BME280;26021;45.640;11.302;2023-05-09T02:01:59;99001.13;;;15.15;100.00
40315;BME280;26021;45.640;11.302;2023-05-09T02:04:25;99065.44;;;15.38;100.00
40315;BME280;26021;45.640;11.302;2023-05-09T02:06:53;99042.22;;;15.30;100.00
40315;BME280;26021;45.640;11.302;2023-05-09T02:09:19;99076.66;;;15.41;100.00
40315;BME280;26021;45.640;11.302;2023-05-09T02:11:44;99067.16;;;15.52;100.00
40315;BME280;26021;45.640;11.302;2023-05-09T02:14:11;99045.16;;;15.42;100.00
40315;BME280;26021;45.640;11.302;2023-05-09T02:16:37;98999.06;;;15.17;100.00
40315;BME280;26021;45.640;11.302;2023-05-09T02:19:03;99059.16;;;15.65;100.00
40315;BME280;26021;45.640;11.302;2023-05-09T02:21:29;99063.56;;;15.32;100.00
40315;BME280;26021;45.640;11.302;2023-05-09T02:23:55;99058.81;;;15.40;100.00
40315;BME280;26021;45.640;11.302;2023-05-09T02:26:21;99059.91;;;15.52;100.00
40315;BME280;26021;45.640;11.302;2023-05-09T02:28:47;99056.13;;;15.40;100.00
40315;BME280;26021;45.640;11.302;2023-05-09T02:31:15;99051.78;;;15.46;100.00
40315;BME280;26021;45.640;11.302;2023-05-09T02:33:43;99047.22;;;15.46;100.00
40315;BME280;26021;45.640;11.302;2023-05-09T02:36:11;99049.31;;;15.44;100.00
40315;BME280;26021;45.640;11.302;2023-05-09T02:38:37;99042.28;;;15.50;100.00
40315;BME280;26021;45.640;11.302;2023-05-09T02:41:02;99045.69;;;15.65;100.00
40315;BME280;26021;45.640;11.302;2023-05-09T02:43:28;99044.81;;;15.58;100.00
40315;BME280;26021;45.640;11.302;2023-05-09T02:45:53;99046.59;;;15.38;100.00
40315;BME280;26021;45.640;11.302;2023-05-09T02:48:19;99039.53;;;15.37;100.00
40315;BME280;26021;45.640;11.302;2023-05-09T02:50:45;99041.84;;;15.46;100.00
40315;BME280;26021;45.640;11.302;2023-05-09T02:53:10;98997.63;;;15.21;100.00
40315;BME280;26021;45.640;11.302;2023-05-09T02:55:36;99028.53;;;15.32;100.00
40315;BME280;26021;45.640;11.302;2023-05-09T02:58:01;99036.81;;;15.30;100.00
40315;BME280;26021;45.640;11.302;2023-05-09T03:00:26;99033.06;;;15.24;100.00
40315;BME280;26021;45.640;11.302;2023-05-09T03:02:52;99042.41;;;15.29;100.00
40315;BME280;26021;45.640;11.302;2023-05-09T03:05:17;99035.78;;;15.24;100.00
40315;BME280;26021;45.640;11.302;2023-05-09T03:07:43;99028.75;;;15.30;100.00
40315;BME280;26021;45.640;11.302;2023-05-09T03:10:09;99033.38;;;14.95;100.00
40315;BME280;26021;45.640;11.302;2023-05-09T03:12:38;99038.06;;;15.27;100.00
40315;BME280;26021;45.640;11.302;2023-05-09T03:15:07;99046.13;;;15.21;100.00
40315;BME280;26021;45.640;11.302;2023-05-09T03:17:33;99042.22;;;15.37;100.00
40315;BME280;26021;45.640;11.302;2023-05-09T03:20:00;99041.59;;;15.35;100.00
40315;BME280;26021;45.640;11.302;2023-05-09T03:22:25;99036.16;;;15.15;100.00
40315;BME280;26021;45.640;11.302;2023-05-09T03:24:50;99032.81;;;15.06;100.00
40315;BME280;26021;45.640;11.302;2023-05-09T03:27:16;99029.91;;;15.08;100.00
40315;BME280;26021;45.640;11.302;2023-05-09T03:29:42;99028.53;;;15.25;100.00
40315;BME280;26021;45.640;11.302;2023-05-09T03:32:08;99027.03;;;15.16;100.00
40315;BME280;26021;45.640;11.302;2023-05-09T03:34:33;98996.00;;;14.79;100.00
40315;BME280;26021;45.640;11.302;2023-05-09T03:36:59;99020.63;;;15.23;100.00
40315;BME280;26021;45.640;11.302;2023-05-09T03:39:24;99022.97;;;15.40;100.00
40315;BME280;26021;45.640;11.302;2023-05-09T03:41:49;99020.69;;;15.43;100.00
40315;BME280;26021;45.640;11.302;2023-05-09T03:44:15;99014.00;;;15.19;100.00
40315;BME280;26021;45.640;11.302;2023-05-09T03:46:40;98992.16;;;14.94;100.00
40315;BME280;26021;45.640;11.302;2023-05-09T03:49:06;99031.41;;;15.17;100.00
40315;BME280;26021;45.640;11.302;2023-05-09T03:51:31;99029.31;;;15.19;100.00
40315;BME280;26021;45.640;11.302;2023-05-09T03:53:57;99029.94;;;15.14;100.00
40315;BME280;26021;45.640;11.302;2023-05-09T03:56:22;99035.97;;;15.23;100.00
40315;BME280;26021;45.640;11.302;2023-05-09T03:58:48;98984.91;;;14.95;100.00
40315;BME280;26021;45.640;11.302;2023-05-09T04:01:14;98917.16;;;14.44;100.00
40315;BME280;26021;45.640;11.302;2023-05-09T04:03:40;99044.22;;;15.15;100.00
40315;BME280;26021;45.640;11.302;2023-05-09T04:06:06;99041.72;;;15.07;100.00
40315;BME280;26021;45.640;11.302;2023-05-09T04:08:32;98974.00;;;14.69;100.00
40315;BME280;26021;45.640;11.302;2023-05-09T04:10:57;99039.91;;;15.20;100.00
40315;BME280;26021;45.640;11.302;2023-05-09T04:13:23;99025.34;;;15.08;100.00
40315;BME280;26021;45.640;11.302;2023-05-09T04:15:48;99031.78;;;15.14;100.00
40315;BME280;26021;45.640;11.302;2023-05-09T04:18:13;99043.59;;;15.13;100.00
40315;BME280;26021;45.640;11.302;2023-05-09T04:20:39;99021.16;;;14.92;100.00
40315;BME280;26021;45.640;11.302;2023-05-09T04:23:04;99043.97;;;15.03;100.00
40315;BME280;26021;45.640;11.302;2023-05-09T04:25:30;99037.94;;;14.94;100.00
40315;BME280;26021;45.640;11.302;2023-05-09T04:27:56;99010.25;;;14.73;100.00
40315;BME280;26021;45.640;11.302;2023-05-09T04:30:22;99045.63;;;14.98;100.00
40315;BME280;26021;45.640;11.302;2023-05-09T04:32:47;99031.03;;;14.85;100.00
40315;BME280;26021;45.640;11.302;2023-05-09T04:35:14;99046.28;;;15.06;100.00
40315;BME280;26021;45.640;11.302;2023-05-09T04:37:39;99044.78;;;14.97;100.00
40315;BME280;26021;45.640;11.302;2023-05-09T04:40:06;99038.59;;;15.03;100.00
40315;BME280;26021;45.640;11.302;2023-05-09T04:42:33;99042.81;;;15.19;100.00
40315;BME280;26021;45.640;11.302;2023-05-09T04:45:00;99038.09;;;15.41;100.00
40315;BME280;26021;45.640;11.302;2023-05-09T04:47:25;99044.09;;;15.36;100.00
40315;BME280;26021;45.640;11.302;2023-05-09T04:49:50;99041.41;;;15.36;100.00
40315;BME280;26021;45.640;11.302;2023-05-09T04:52:16;99040.59;;;15.49;100.00
40315;BME280;26021;45.640;11.302;2023-05-09T04:54:41;99036.66;;;15.45;100.00
40315;BME280;26021;45.640;11.302;2023-05-09T04:57:07;98987.00;;;15.06;100.00
40315;BME280;26021;45.640;11.302;2023-05-09T04:59:33;99002.38;;;15.12;100.00
40315;BME280;26021;45.640;11.302;2023-05-09T05:01:59;99045.16;;;15.42;100.00
40315;BME280;26021;45.640;11.302;2023-05-09T05:04:24;99043.19;;;15.16;100.00
40315;BME280;26021;45.640;11.302;2023-05-09T05:06:50;99048.63;;;15.29;100.00
40315;BME280;26021;45.640;11.302;2023-05-09T05:09:15;99050.72;;;15.34;100.00
40315;BME280;26021;45.640;11.302;2023-05-09T05:11:41;99047.03;;;15.48;100.00
40315;BME280;26021;45.640;11.302;2023-05-09T05:14:07;99014.19;;;15.11;100.00
40315;BME280;26021;45.640;11.302;2023-05-09T05:16:32;99047.19;;;15.33;100.00
40315;BME280;26021;45.640;11.302;2023-05-09T05:18:57;99051.09;;;15.24;100.00
40315;BME280;26021;45.640;11.302;2023-05-09T05:21:23;99034.34;;;15.29;100.00
40315;BME280;26021;45.640;11.302;2023-05-09T05:23:48;99012.34;;;15.18;100.00
40315;BME280;26021;45.640;11.302;2023-05-09T05:26:14;99051.03;;;15.58;100.00
40315;BME280;26021;45.640;11.302;2023-05-09T05:28:39;99052.13;;;15.71;100.00
40315;BME280;26021;45.640;11.302;2023-05-09T05:31:05;99050.06;;;15.73;100.00
40315;BME280;26021;45.640;11.302;2023-05-09T05:33:30;99041.31;;;15.64;100.00
40315;BME280;26021;45.640;11.302;2023-05-09T05:35:55;99062.84;;;15.57;100.00
40315;BME280;26021;45.640;11.302;2023-05-09T05:38:21;99065.59;;;15.64;100.00
40315;BME280;26021;45.640;11.302;2023-05-09T05:40:46;99059.38;;;15.64;100.00
40315;BME280;26021;45.640;11.302;2023-05-09T05:43:12;99067.69;;;15.75;100.00
40315;BME280;26021;45.640;11.302;2023-05-09T05:45:37;99059.19;;;15.78;100.00
40315;BME280;26021;45.640;11.302;2023-05-09T05:48:03;99057.09;;;15.61;100.00
40315;BME280;26021;45.640;11.302;2023-05-09T05:50:28;99059.81;;;15.74;100.00
40315;BME280;26021;45.640;11.302;2023-05-09T05:52:53;99052.72;;;15.66;100.00
40315;BME280;26021;45.640;11.302;2023-05-09T05:55:19;99047.00;;;15.41;100.00
40315;BME280;26021;45.640;11.302;2023-05-09T05:57:44;99066.38;;;15.58;100.00
40315;BME280;26021;45.640;11.302;2023-05-09T06:00:12;99040.59;;;15.42;100.00
40315;BME280;26021;45.640;11.302;2023-05-09T06:02:41;99064.03;;;15.48;100.00
40315;BME280;26021;45.640;11.302;2023-05-09T06:05:08;99054.91;;;15.49;100.00
40315;BME280;26021;45.640;11.302;2023-05-09T06:07:33;99058.13;;;15.66;100.00
40315;BME280;26021;45.640;11.302;2023-05-09T06:09:59;99053.38;;;15.88;100.00
40315;BME280;26021;45.640;11.302;2023-05-09T06:12:24;99059.19;;;15.85;100.00
40315;BME280;26021;45.640;11.302;2023-05-09T06:14:50;99072.03;;;15.76;100.00
40315;BME280;26021;45.640;11.302;2023-05-09T06:17:15;99073.50;;;15.72;100.00
40315;BME280;26021;45.640;11.302;2023-05-09T06:19:41;99056.41;;;15.58;100.00
40315;BME280;26021;45.640;11.302;2023-05-09T06:22:07;99072.88;;;15.77;100.00
40315;BME280;26021;45.640;11.302;2023-05-09T06:24:32;99068.13;;;15.99;100.00
40315;BME280;26021;45.640;11.302;2023-05-09T06:26:58;99065.84;;;16.02;100.00
40315;BME280;26021;45.640;11.302;2023-05-09T06:29:23;99060.03;;;16.25;100.00
40315;BME280;26021;45.640;11.302;2023-05-09T06:31:48;99055.28;;;16.40;100.00
40315;BME280;26021;45.640;11.302;2023-05-09T06:34:14;99062.31;;;16.21;100.00
40315;BME280;26021;45.640;11.302;2023-05-09T06:36:39;99062.75;;;16.25;100.00
40315;BME280;26021;45.640;11.302;2023-05-09T06:39:05;99018.13;;;16.03;100.00
40315;BME280;26021;45.640;11.302;2023-05-09T06:41:30;99066.50;;;16.37;100.00
40315;BME280;26021;45.640;11.302;2023-05-09T06:43:56;99067.50;;;16.23;100.00
40315;BME280;26021;45.640;11.302;2023-05-09T06:46:21;99063.78;;;16.24;100.00
40315;BME280;26021;45.640;11.302;2023-05-09T06:48:47;99063.97;;;16.03;100.00
40315;BME280;26021;45.640;11.302;2023-05-09T06:51:12;99072.28;;;16.01;100.00
40315;BME280;26021;45.640;11.302;2023-05-09T06:53:37;99072.69;;;16.25;100.00
40315;BME280;26021;45.640;11.302;2023-05-09T06:56:03;99063.56;;;16.32;100.00
40315;BME280;26021;45.640;11.302;2023-05-09T06:58:29;98836.47;;;14.63;100.00
40315;BME280;26021;45.640;11.302;2023-05-09T07:00:54;99057.34;;;16.12;100.00
40315;BME280;26021;45.640;11.302;2023-05-09T07:03:20;99063.78;;;16.24;100.00
40315;BME280;26021;45.640;11.302;2023-05-09T07:05:45;99048.63;;;16.30;100.00
40315;BME280;26021;45.640;11.302;2023-05-09T07:08:11;99062.75;;;16.45;100.00
40315;BME280;26021;45.640;11.302;2023-05-09T07:10:36;99056.09;;;16.21;100.00
40315;BME280;26021;45.640;11.302;2023-05-09T07:13:03;99058.41;;;16.44;100.00
40315;BME280;26021;45.640;11.302;2023-05-09T07:15:28;99054.44;;;16.66;100.00
40315;BME280;26021;45.640;11.302;2023-05-09T07:17:53;99058.56;;;16.75;100.00
40315;BME280;26021;45.640;11.302;2023-05-09T07:20:19;99044.03;;;16.76;100.00
40315;BME280;26021;45.640;11.302;2023-05-09T07:22:44;99051.50;;;16.81;100.00
40315;BME280;26021;45.640;11.302;2023-05-09T07:25:09;99065.03;;;16.74;100.00
40315;BME280;26021;45.640;11.302;2023-05-09T07:27:35;99049.22;;;16.71;100.00
40315;BME280;26021;45.640;11.302;2023-05-09T07:30:04;99054.59;;;16.84;100.00
40315;BME280;26021;45.640;11.302;2023-05-09T07:32:30;99055.22;;;16.87;100.00
40315;BME280;26021;45.640;11.302;2023-05-09T07:34:56;99053.50;;;16.99;100.00
40315;BME280;26021;45.640;11.302;2023-05-09T07:37:21;99056.84;;;16.94;100.00
40315;BME280;26021;45.640;11.302;2023-05-09T07:39:47;99050.38;;;17.02;100.00
40315;BME280;26021;45.640;11.302;2023-05-09T07:42:12;99056.19;;;17.05;100.00
40315;BME280;26021;45.640;11.302;2023-05-09T07:44:38;99061.56;;;17.19;100.00
40315;BME280;26021;45.640;11.302;2023-05-09T07:47:03;99051.81;;;17.18;100.00
40315;BME280;26021;45.640;11.302;2023-05-09T07:49:30;99048.44;;;17.29;100.00
40315;BME280;26021;45.640;11.302;2023-05-09T07:51:55;99037.13;;;17.45;100.00
40315;BME280;26021;45.640;11.302;2023-05-09T07:54:21;99031.94;;;17.43;100.00
40315;BME280;26021;45.640;11.302;2023-05-09T07:56:47;99033.03;;;17.29;100.00
40315;BME280;26021;45.640;11.302;2023-05-09T07:59:12;99029.31;;;17.24;100.00
40315;BME280;26021;45.640;11.302;2023-05-09T08:01:37;99031.19;;;17.68;100.00
40315;BME280;26021;45.640;11.302;2023-05-09T08:04:03;99034.56;;;17.95;100.00
40315;BME280;26021;45.640;11.302;2023-05-09T08:06:31;99025.88;;;18.11;98.63
40315;BME280;26021;45.640;11.302;2023-05-09T08:08:56;99024.44;;;18.33;96.92
40315;BME280;26021;45.640;11.302;2023-05-09T08:11:22;99017.75;;;18.36;91.92
40315;BME280;26021;45.640;11.302;2023-05-09T08:13:47;99021.78;;;18.27;89.64
40315;BME280;26021;45.640;11.302;2023-05-09T08:16:13;99024.34;;;17.97;91.95
40315;BME280;26021;45.640;11.302;2023-05-09T08:18:38;99011.91;;;18.14;91.12
40315;BME280;26021;45.640;11.302;2023-05-09T08:21:04;99014.06;;;18.30;90.37
40315;BME280;26021;45.640;11.302;2023-05-09T08:23:29;98999.03;;;18.78;88.81
40315;BME280;26021;45.640;11.302;2023-05-09T08:25:55;99006.63;;;18.87;88.38
40315;BME280;26021;45.640;11.302;2023-05-09T08:28:21;99002.84;;;19.07;85.19
40315;BME280;26021;45.640;11.302;2023-05-09T08:30:49;99003.63;;;18.77;87.29
40315;BME280;26021;45.640;11.302;2023-05-09T08:33:15;99003.19;;;18.80;89.21
40315;BME280;26021;45.640;11.302;2023-05-09T08:35:40;99009.94;;;19.08;90.14
40315;BME280;26021;45.640;11.302;2023-05-09T08:38:06;99004.13;;;19.04;86.54
40315;BME280;26021;45.640;11.302;2023-05-09T08:40:34;98999.34;;;18.69;89.94
40315;BME280;26021;45.640;11.302;2023-05-09T08:43:02;98981.22;;;18.45;91.12
40315;BME280;26021;45.640;11.302;2023-05-09T08:45:31;98990.97;;;19.08;87.91
40315;BME280;26021;45.640;11.302;2023-05-09T08:47:58;98993.59;;;19.14;86.88
40315;BME280;26021;45.640;11.302;2023-05-09T08:50:24;98993.91;;;19.06;87.89
40315;BME280;26021;45.640;11.302;2023-05-09T08:52:50;98929.31;;;18.48;87.20
40315;BME280;26021;45.640;11.302;2023-05-09T08:55:16;98988.03;;;18.29;93.00
40315;BME280;26021;45.640;11.302;2023-05-09T08:57:42;98984.81;;;18.57;92.26
40315;BME280;26021;45.640;11.302;2023-05-09T09:00:08;98989.19;;;18.40;90.75
40315;BME280;26021;45.640;11.302;2023-05-09T09:02:35;98983.09;;;18.45;91.91
40315;BME280;26021;45.640;11.302;2023-05-09T09:05:01;98982.47;;;18.67;91.03
40315;BME280;26021;45.640;11.302;2023-05-09T09:07:27;98984.81;;;18.57;90.80
40315;BME280;26021;45.640;11.302;2023-05-09T09:09:54;98985.88;;;18.38;94.55
40315;BME280;26021;45.640;11.302;2023-05-09T09:12:22;98991.28;;;18.38;94.97
40315;BME280;26021;45.640;11.302;2023-05-09T09:14:52;98944.69;;;18.11;93.64
40315;BME280;26021;45.640;11.302;2023-05-09T09:17:20;98937.06;;;17.76;98.33
40315;BME280;26021;45.640;11.302;2023-05-09T09:19:54;98984.91;;;18.07;97.16
40315;BME280;26021;45.640;11.302;2023-05-09T09:22:20;98988.63;;;17.82;97.02
40315;BME280;26021;45.640;11.302;2023-05-09T09:24:46;98976.81;;;17.76;99.80
40315;BME280;26021;45.640;11.302;2023-05-09T09:27:11;98985.41;;;17.98;99.20
40315;BME280;26021;45.640;11.302;2023-05-09T09:29:37;98957.28;;;17.74;95.73
40315;BME280;26021;45.640;11.302;2023-05-09T09:32:04;98981.44;;;18.00;98.44
40315;BME280;26021;45.640;11.302;2023-05-09T09:34:30;98985.25;;;18.36;95.97
40315;BME280;26021;45.640;11.302;2023-05-09T09:36:55;98976.41;;;18.47;94.19
40315;BME280;26021;45.640;11.302;2023-05-09T09:39:21;98975.94;;;18.75;94.07
40315;BME280;26021;45.640;11.302;2023-05-09T09:41:47;98974.06;;;18.76;93.54
40315;BME280;26021;45.640;11.302;2023-05-09T09:46:52;98969.59;;;18.81;90.17
40315;BME280;26021;45.640;11.302;2023-05-09T09:49:23;98969.84;;;18.80;92.32
40315;BME280;26021;45.640;11.302;2023-05-09T09:51:56;98961.50;;;19.11;90.12
40315;BME280;26021;45.640;11.302;2023-05-09T09:54:24;98951.03;;;19.15;89.72
40315;BME280;26021;45.640;11.302;2023-05-09T09:56:51;98954.88;;;19.07;90.15
40315;BME280;26021;45.640;11.302;2023-05-09T09:59:23;98957.75;;;19.12;91.74
40315;BME280;26021;45.640;11.302;2023-05-09T10:01:59;98953.88;;;19.50;87.51
40315;BME280;26021;45.640;11.302;2023-05-09T10:04:37;98950.22;;;19.44;83.12
40315;BME280;26021;45.640;11.302;2023-05-09T10:07:04;98898.81;;;19.19;82.88
40315;BME280;26021;45.640;11.302;2023-05-09T10:09:32;98953.28;;;19.18;88.78
40315;BME280;26021;45.640;11.302;2023-05-09T10:12:03;98921.94;;;19.22;87.04
40315;BME280;26021;45.640;11.302;2023-05-09T10:14:31;98947.88;;;19.48;87.54
40315;BME280;26021;45.640;11.302;2023-05-09T10:17:00;98945.56;;;19.03;89.22
40315;BME280;26021;45.640;11.302;2023-05-09T10:19:26;98885.28;;;18.89;86.43
40315;BME280;26021;45.640;11.302;2023-05-09T10:22:01;98940.69;;;19.23;87.94
40315;BME280;26021;45.640;11.302;2023-05-09T10:27:09;98935.59;;;19.15;86.39
40315;BME280;26021;45.640;11.302;2023-05-09T10:29:48;98923.91;;;18.85;88.87
40315;BME280;26021;45.640;11.302;2023-05-09T10:34:48;98913.00;;;18.91;91.58
40315;BME280;26021;45.640;11.302;2023-05-09T10:37:16;98932.66;;;19.47;87.60
40315;BME280;26021;45.640;11.302;2023-05-09T10:39:42;98925.63;;;19.57;87.02
40315;BME280;26021;45.640;11.302;2023-05-09T10:42:08;98934.63;;;19.70;85.66
40315;BME280;26021;45.640;11.302;2023-05-09T10:44:34;98900.75;;;19.60;83.36
40315;BME280;26021;45.640;11.302;2023-05-09T10:47:00;98935.34;;;19.77;82.41
40315;BME280;26021;45.640;11.302;2023-05-09T10:49:26;98898.75;;;19.79;81.86
40315;BME280;26021;45.640;11.302;2023-05-09T10:51:52;98925.44;;;20.29;85.20
40315;BME280;26021;45.640;11.302;2023-05-09T10:54:28;98924.97;;;19.97;82.69
40315;BME280;26021;45.640;11.302;2023-05-09T10:56:54;98896.63;;;19.58;86.07
40315;BME280;26021;45.640;11.302;2023-05-09T10:59:34;98912.94;;;19.40;85.76
40315;BME280;26021;45.640;11.302;2023-05-09T11:02:01;98918.59;;;19.80;82.00
40315;BME280;26021;45.640;11.302;2023-05-09T11:04:28;98908.78;;;19.90;82.40
40315;BME280;26021;45.640;11.302;2023-05-09T11:06:53;98912.47;;;20.31;79.46
40315;BME280;26021;45.640;11.302;2023-05-09T11:11:53;98903.63;;;20.24;76.13
40315;BME280;26021;45.640;11.302;2023-05-09T11:14:32;98875.81;;;19.52;78.31
40315;BME280;26021;45.640;11.302;2023-05-09T11:17:03;98896.91;;;19.38;79.00
40315;BME280;26021;45.640;11.302;2023-05-09T11:22:23;98896.63;;;20.28;76.34
40315;BME280;26021;45.640;11.302;2023-05-09T11:24:51;98891.78;;;19.95;75.80
40315;BME280;26021;45.640;11.302;2023-05-09T11:29:55;98887.44;;;20.41;74.46
40315;BME280;26021;45.640;11.302;2023-05-09T11:32:26;98889.06;;;20.53;71.49
40315;BME280;26021;45.640;11.302;2023-05-09T11:35:04;98838.31;;;20.30;75.42
40315;BME280;26021;45.640;11.302;2023-05-09T11:37:30;98881.63;;;20.49;76.99
40315;BME280;26021;45.640;11.302;2023-05-09T11:40:00;98868.53;;;20.22;82.38
40315;BME280;26021;45.640;11.302;2023-05-09T11:42:29;98870.31;;;20.28;81.66
40315;BME280;26021;45.640;11.302;2023-05-09T11:44:57;98822.41;;;20.11;79.46
40315;BME280;26021;45.640;11.302;2023-05-09T11:47:23;98863.09;;;20.34;80.69
40315;BME280;26021;45.640;11.302;2023-05-09T11:49:49;98857.19;;;20.37;78.50
40315;BME280;26021;45.640;11.302;2023-05-09T11:52:17;98860.13;;;20.47;75.83
40315;BME280;26021;45.640;11.302;2023-05-09T11:54:42;98850.72;;;20.15;78.24
40315;BME280;26021;45.640;11.302;2023-05-09T11:57:08;98855.53;;;20.36;80.16
40315;BME280;26021;45.640;11.302;2023-05-09T11:59:34;98815.44;;;20.15;79.35
40315;BME280;26021;45.640;11.302;2023-05-09T12:02:03;98806.56;;;20.19;80.67
40315;BME280;26021;45.640;11.302;2023-05-09T12:04:30;98865.31;;;20.37;82.73
40315;BME280;26021;45.640;11.302;2023-05-09T12:07:00;98863.72;;;20.13;81.75
40315;BME280;26021;45.640;11.302;2023-05-09T12:09:29;98860.66;;;19.74;86.91
40315;BME280;26021;45.640;11.302;2023-05-09T12:11:57;98860.53;;;19.69;86.05
40315;BME280;26021;45.640;11.302;2023-05-09T12:14:33;98851.78;;;19.55;87.47
40315;BME280;26021;45.640;11.302;2023-05-09T12:17:00;98855.22;;;19.74;86.56
40315;BME280;26021;45.640;11.302;2023-05-09T12:19:26;98848.00;;;20.03;85.71
40315;BME280;26021;45.640;11.302;2023-05-09T12:22:00;98842.47;;;19.86;88.03
40315;BME280;26021;45.640;11.302;2023-05-09T12:24:27;98839.97;;;19.96;86.58
40315;BME280;26021;45.640;11.302;2023-05-09T12:26:53;98827.50;;;20.07;86.65
40315;BME280;26021;45.640;11.302;2023-05-09T12:29:20;98836.31;;;20.26;84.87
40315;BME280;26021;45.640;11.302;2023-05-09T12:31:46;98842.66;;;20.31;83.11
40315;BME280;26021;45.640;11.302;2023-05-09T12:34:12;98837.28;;;20.60;83.76
40315;BME280;26021;45.640;11.302;2023-05-09T12:36:38;98839.22;;;20.36;83.33
40315;BME280;26021;45.640;11.302;2023-05-09T12:39:08;98829.09;;;20.31;82.22
40315;BME280;26021;45.640;11.302;2023-05-09T12:41:44;98818.81;;;20.45;80.60
40315;BME280;26021;45.640;11.302;2023-05-09T12:44:17;98818.31;;;20.48;80.99
40315;BME280;26021;45.640;11.302;2023-05-09T12:46:55;98822.47;;;20.27;83.36
40315;BME280;26021;45.640;11.302;2023-05-09T12:49:21;98823.66;;;20.31;84.67
40315;BME280;26021;45.640;11.302;2023-05-09T12:51:48;98819.78;;;20.04;85.63
40315;BME280;26021;45.640;11.302;2023-05-09T12:54:22;98769.31;;;19.45;88.90
40315;BME280;26021;45.640;11.302;2023-05-09T12:56:48;98777.66;;;19.31;88.57
40315;BME280;26021;45.640;11.302;2023-05-09T12:59:19;98813.78;;;19.44;91.32
40315;BME280;26021;45.640;11.302;2023-05-09T13:01:50;98809.16;;;19.32;92.34
40315;BME280;26021;45.640;11.302;2023-05-09T13:04:18;98794.72;;;19.09;93.38
40315;BME280;26021;45.640;11.302;2023-05-09T13:06:51;98800.94;;;18.97;94.62